createdAt,value
2023-05-06T04:28:15.666Z,51.291264
2023-05-06T04:29:15.524Z,51.291225
2023-05-06T04:30:15.545Z,51.291237
2023-05-06T04:31:15.581Z,51.291286
2023-05-06T04:32:15.599Z,51.291290
2023-05-06T04:33:15.513Z,51.291233
2023-05-06T04:34:15.474Z,51.291199
2023-05-06T04:35:15.535Z,51.291191
2023-05-06T04:36:15.471Z,51.291172
2023-05-06T04:37:15.440Z,51.291210
2023-05-06T04:38:15.459Z,51.291180
2023-05-06T04:39:15.456Z,51.291164
2023-05-06T04:40:15.425Z,51.291172
2023-05-06T04:41:16.299Z,51.291225
2023-05-06T04:42:15.446Z,51.291241
2023-05-06T04:43:15.440Z,51.291248
2023-05-06T04:44:15.366Z,51.291206
2023-05-06T04:45:15.336Z,51.291183
2023-05-06T04:46:15.469Z,51.291183
2023-05-06T04:47:15.349Z,51.291225
2023-05-06T04:48:15.447Z,51.291199
2023-05-06T04:49:15.304Z,51.291245
2023-05-06T04:50:15.330Z,51.291157
2023-05-06T04:51:15.290Z,51.291172
2023-05-06T04:52:15.279Z,51.291149
2023-05-06T04:53:15.261Z,51.291149
2023-05-06T04:54:15.253Z,51.291145
2023-05-06T04:55:15.216Z,51.291176
2023-05-06T04:56:15.169Z,51.291172
2023-05-06T04:57:15.220Z,51.291164
2023-05-06T04:58:15.223Z,51.291153
2023-05-06T04:59:15.225Z,51.291199
2023-05-06T05:00:15.190Z,51.291050
2023-05-06T05:01:15.209Z,51.291229
2023-05-06T05:02:15.181Z,51.291225
2023-05-06T05:03:15.236Z,51.291283
2023-05-06T05:04:15.155Z,51.291210
2023-05-06T05:05:15.179Z,51.291149
2023-05-06T05:06:15.207Z,51.291191
2023-05-06T05:07:15.117Z,51.291161
2023-05-06T05:08:15.033Z,51.291187
2023-05-06T05:09:15.059Z,51.291183
2023-05-06T05:10:15.067Z,51.291214
2023-05-06T05:11:15.004Z,51.291084
2023-05-06T05:12:15.020Z,51.291058
2023-05-06T05:13:15.082Z,51.291195
2023-05-06T05:14:15.023Z,51.291180
2023-05-06T05:15:14.997Z,51.291157
2023-05-06T05:16:14.986Z,51.291245
2023-05-06T05:17:15.017Z,51.291191
2023-05-06T05:18:14.979Z,51.291191
2023-05-06T05:19:14.955Z,51.291180
2023-05-06T05:20:15.010Z,51.291218
2023-05-06T05:21:14.921Z,51.291126
2023-05-06T05:22:14.917Z,51.291313
2023-05-06T05:23:14.880Z,51.291138
2023-05-06T05:24:14.837Z,51.291100
2023-05-06T05:25:15.219Z,51.291046
2023-05-06T05:26:14.868Z,51.291046
2023-05-06T05:27:14.844Z,51.291046
2023-05-06T05:28:14.833Z,51.291046
2023-05-06T05:29:14.767Z,51.291046
2023-05-06T05:30:14.766Z,51.291180
2023-05-06T05:31:14.875Z,51.291142
2023-05-06T05:32:14.775Z,51.291122
2023-05-06T05:33:14.863Z,51.291149
2023-05-06T05:34:15.083Z,51.291134
2023-05-06T05:35:14.733Z,51.291290
2023-05-06T05:36:14.730Z,51.291096
2023-05-06T05:37:14.726Z,51.291233
2023-05-06T05:38:14.708Z,51.291119
2023-05-06T05:39:14.708Z,51.291149
2023-05-06T05:40:14.642Z,51.291107
2023-05-06T05:41:16.123Z,51.291080
2023-05-06T05:42:14.673Z,51.291107
2023-05-06T05:43:14.644Z,51.291111
2023-05-06T05:44:14.629Z,51.291077
2023-05-06T05:45:14.600Z,51.291119
2023-05-06T05:46:14.707Z,51.291222
2023-05-06T05:47:15.615Z,51.291172
2023-05-06T05:48:14.588Z,51.291237
2023-05-06T05:49:14.523Z,51.291195
2023-05-06T05:50:14.581Z,51.291229
2023-05-06T05:51:14.569Z,51.291122
2023-05-06T05:52:14.568Z,51.291145
2023-05-06T05:53:14.513Z,51.291084
2023-05-06T05:54:14.547Z,51.291225
2023-05-06T05:55:14.496Z,51.291256
2023-05-06T05:56:14.531Z,51.291328
2023-05-06T05:57:14.493Z,51.291458
2023-05-06T05:58:14.442Z,51.291378
2023-05-06T05:59:14.501Z,51.291359
2023-05-06T06:00:14.465Z,51.291389
2023-05-06T06:01:14.503Z,51.291344
2023-05-06T06:02:14.435Z,51.291183
2023-05-06T06:03:14.508Z,51.291206
2023-05-06T06:04:14.457Z,51.291290
2023-05-06T06:05:14.405Z,51.291393
2023-05-06T06:06:14.413Z,51.291344
2023-05-06T06:07:14.431Z,51.291290
2023-05-06T06:08:14.396Z,51.291225
2023-05-06T06:09:14.339Z,51.291348
2023-05-06T06:10:14.364Z,51.291302
2023-05-06T06:11:14.451Z,51.291149
2023-05-06T06:12:14.351Z,51.291172
2023-05-06T06:13:14.303Z,51.291229
2023-05-06T06:14:14.439Z,51.291283
2023-05-06T06:15:14.295Z,51.291248
2023-05-06T06:16:14.305Z,51.291256
2023-05-06T06:17:14.352Z,51.291267
2023-05-06T06:18:14.253Z,51.291290
2023-05-06T06:19:14.288Z,51.291252
2023-05-06T06:20:14.902Z,51.291199
2023-05-06T06:21:14.220Z,51.291183
2023-05-06T06:22:14.290Z,51.291260
2023-05-06T06:23:14.187Z,51.291306
2023-05-06T06:24:14.205Z,51.291164
2023-05-06T06:25:14.177Z,51.291229
2023-05-06T06:26:14.978Z,51.291634
2023-05-06T06:27:14.198Z,51.291325
2023-05-06T06:28:14.200Z,51.291218
2023-05-06T06:29:14.743Z,51.291397
2023-05-06T06:30:14.150Z,51.291290
2023-05-06T06:31:14.093Z,51.291271
2023-05-06T06:32:14.169Z,51.291290
2023-05-06T06:33:14.088Z,51.291199
2023-05-06T06:34:14.185Z,51.291294
2023-05-06T06:35:14.060Z,51.291203
2023-05-06T06:36:14.096Z,51.291206
2023-05-06T06:37:14.081Z,51.291275
2023-05-06T06:38:14.010Z,51.291080
2023-05-06T06:39:14.038Z,51.290966
2023-05-06T06:40:14.025Z,51.291237
2023-05-06T06:41:13.992Z,51.291008
2023-05-06T06:42:13.970Z,51.291019
2023-05-06T06:43:13.972Z,51.291145
2023-05-06T06:44:13.948Z,51.291256
2023-05-06T06:45:14.071Z,51.291237
2023-05-06T06:46:13.948Z,51.291046
2023-05-06T06:47:13.964Z,51.290726
2023-05-06T06:48:13.981Z,51.290726
2023-05-06T06:49:13.919Z,51.291145
2023-05-06T06:50:13.880Z,51.291000
2023-05-06T06:51:14.002Z,51.290928
2023-05-06T06:52:13.883Z,51.291096
2023-05-06T06:53:13.880Z,51.291229
2023-05-06T06:54:13.811Z,51.291138
2023-05-06T06:55:13.824Z,51.291233
2023-05-06T06:56:13.795Z,51.291149
2023-05-06T06:57:13.910Z,51.291306
2023-05-06T06:58:13.806Z,51.291267
2023-05-06T06:59:13.777Z,51.291080
2023-05-06T07:00:13.812Z,51.291115
2023-05-06T07:01:13.818Z,51.291248
2023-05-06T07:02:13.736Z,51.291149
2023-05-06T07:03:13.703Z,51.291073
2023-05-06T07:04:13.795Z,51.291153
2023-05-06T07:05:13.712Z,51.291153
2023-05-06T07:06:13.693Z,51.291153
2023-05-06T07:07:13.770Z,51.291210
2023-05-06T07:08:13.692Z,51.291153
2023-05-06T07:09:13.724Z,51.291283
2023-05-06T07:10:13.621Z,51.291248
2023-05-06T07:11:13.620Z,51.291237
2023-05-06T07:12:13.658Z,51.291203
2023-05-06T07:13:13.689Z,51.291142
2023-05-06T07:14:13.809Z,51.291157
2023-05-06T07:15:13.786Z,51.291229
2023-05-06T07:16:13.615Z,51.291317
2023-05-06T07:17:13.661Z,51.291233
2023-05-06T07:18:13.669Z,51.291195
2023-05-06T07:19:13.558Z,51.291317
2023-05-06T07:20:13.589Z,51.291233
2023-05-06T07:21:13.515Z,51.291111
2023-05-06T07:22:13.495Z,51.291157
2023-05-06T07:23:13.650Z,51.291370
2023-05-06T07:24:13.551Z,51.291237
2023-05-06T07:25:13.581Z,51.291332
2023-05-06T07:26:13.429Z,51.291176
2023-05-06T07:27:13.429Z,51.291183
2023-05-06T07:28:13.403Z,51.291271
2023-05-06T07:29:13.452Z,51.291191
2023-05-06T07:30:13.454Z,51.291237
2023-05-06T07:31:13.420Z,51.291149
2023-05-06T07:32:13.413Z,51.291126
2023-05-06T07:33:13.384Z,51.291107
2023-05-06T07:34:13.439Z,51.291161
2023-05-06T07:35:13.827Z,51.291203
2023-05-06T07:36:13.375Z,51.291275
2023-05-06T07:37:13.311Z,51.291302
2023-05-06T07:38:13.376Z,51.291248
2023-05-06T07:39:13.413Z,51.291225
2023-05-06T07:40:13.339Z,51.291233
2023-05-06T07:41:13.303Z,51.291286
2023-05-06T07:42:13.274Z,51.291321
2023-05-06T07:43:13.246Z,51.291374
2023-05-06T07:44:13.282Z,51.291431
2023-05-06T07:45:13.357Z,51.291332
2023-05-06T07:46:13.263Z,51.291328
2023-05-06T07:47:13.265Z,51.291306
2023-05-06T07:48:13.306Z,51.291306
2023-05-06T07:49:13.253Z,51.291245
2023-05-06T07:50:13.201Z,51.291180
2023-05-06T07:51:13.166Z,51.291271
2023-05-06T07:52:13.110Z,51.291073
2023-05-06T07:53:13.156Z,51.291164
2023-05-06T07:54:13.153Z,51.291447
2023-05-06T07:55:13.466Z,51.291409
2023-05-06T07:56:13.101Z,51.291252
2023-05-06T07:57:13.139Z,51.291187
2023-05-06T07:58:13.101Z,51.291176
2023-05-06T07:59:13.097Z,51.291206
2023-05-06T08:00:13.074Z,51.291203
2023-05-06T08:01:13.100Z,51.291233
2023-05-06T08:02:13.080Z,51.291225
2023-05-06T08:03:13.211Z,51.291157
2023-05-06T08:04:13.256Z,51.291264
2023-05-06T08:05:13.237Z,51.291321
2023-05-06T08:06:13.102Z,51.291252
2023-05-06T08:07:13.052Z,51.291275
2023-05-06T08:08:12.993Z,51.291317
2023-05-06T08:09:19.753Z,51.291290
2023-05-06T08:10:13.059Z,51.291313
2023-05-06T08:11:13.017Z,51.291286
2023-05-06T08:12:13.011Z,51.291267
2023-05-06T08:13:12.918Z,51.291241
2023-05-06T08:14:12.904Z,51.291168
2023-05-06T08:15:13.168Z,51.291222
2023-05-06T08:16:12.958Z,51.291206
2023-05-06T08:17:12.904Z,51.291206
2023-05-06T08:18:21.802Z,51.291218
2023-05-06T08:19:13.052Z,51.291168
2023-05-06T08:20:12.859Z,51.291363
2023-05-06T08:21:12.880Z,51.291271
2023-05-06T08:22:12.920Z,51.291325
2023-05-06T08:23:12.858Z,51.291237
2023-05-06T08:24:12.942Z,51.291145
2023-05-06T08:25:13.056Z,51.291115
2023-05-06T08:26:12.907Z,51.290947
2023-05-06T08:27:12.943Z,51.290932
2023-05-06T08:28:12.978Z,51.291019
2023-05-06T08:29:12.745Z,51.291248
2023-05-06T08:30:12.839Z,51.291275
2023-05-06T08:31:12.697Z,51.291222
2023-05-06T08:32:12.829Z,51.291229
2023-05-06T08:33:12.731Z,51.291317
2023-05-06T08:34:12.951Z,51.291271
2023-05-06T08:35:12.982Z,51.291157
2023-05-06T08:36:12.671Z,51.291126
2023-05-06T08:37:12.725Z,51.291164
2023-05-06T08:38:12.729Z,51.291206
2023-05-06T08:39:12.622Z,51.291176
2023-05-06T08:40:12.666Z,51.291161
2023-05-06T08:41:12.586Z,51.291119
2023-05-06T08:42:12.628Z,51.291058
2023-05-06T08:43:12.715Z,51.291122
2023-05-06T08:44:12.593Z,51.291080
2023-05-06T08:45:12.701Z,51.291126
2023-05-06T08:46:12.519Z,51.291031
2023-05-06T08:47:12.659Z,51.291126
2023-05-06T08:48:12.555Z,51.291180
2023-05-06T08:49:12.567Z,51.291187
2023-05-06T08:50:12.487Z,51.291199
2023-05-06T08:51:12.498Z,51.291214
2023-05-06T08:52:12.572Z,51.291153
2023-05-06T08:53:12.434Z,51.291172
2023-05-06T08:54:12.504Z,51.291164
2023-05-06T08:55:12.728Z,51.291275
2023-05-06T08:56:12.430Z,51.291191
2023-05-06T08:57:12.650Z,51.291203
2023-05-06T08:58:13.527Z,51.291458
2023-05-06T08:59:12.493Z,51.291351
2023-05-06T09:00:13.418Z,51.291344
2023-05-06T09:01:12.405Z,51.291222
2023-05-06T09:02:12.489Z,51.291256
2023-05-06T09:03:12.398Z,51.291355
2023-05-06T09:04:12.356Z,51.291378
2023-05-06T09:05:12.739Z,51.291412
2023-05-06T09:06:12.329Z,51.291401
2023-05-06T09:07:12.383Z,51.291370
2023-05-06T09:08:12.409Z,51.291382
2023-05-06T09:09:12.380Z,51.291225
2023-05-06T09:10:12.410Z,51.291233
2023-05-06T09:11:12.229Z,51.291321
2023-05-06T09:12:12.340Z,51.291203
2023-05-06T09:13:12.257Z,51.291191
2023-05-06T09:14:12.753Z,51.291195
2023-05-06T09:15:12.718Z,51.291325
2023-05-06T09:16:12.299Z,51.291279
2023-05-06T09:17:12.202Z,51.291370
2023-05-06T09:18:12.244Z,51.291439
2023-05-06T09:19:12.292Z,51.291584
2023-05-06T09:20:12.228Z,51.291451
2023-05-06T09:21:12.170Z,51.291405
2023-05-06T09:22:12.108Z,51.291199
2023-05-06T09:23:12.711Z,51.291233
2023-05-06T09:24:12.097Z,51.291195
2023-05-06T09:25:12.436Z,51.291199
2023-05-06T09:26:12.089Z,51.291187
2023-05-06T09:27:13.825Z,51.291065
2023-05-06T09:28:12.086Z,51.291187
2023-05-06T09:29:12.054Z,51.291187
2023-05-06T09:30:12.391Z,51.291351
2023-05-06T09:31:12.081Z,51.291550
2023-05-06T09:32:12.035Z,51.291245
2023-05-06T09:33:12.177Z,51.291256
2023-05-06T09:34:12.049Z,51.291328
2023-05-06T09:35:12.136Z,51.291195
2023-05-06T09:36:12.074Z,51.291256
2023-05-06T09:37:12.078Z,51.291107
2023-05-06T09:38:12.060Z,51.291168
2023-05-06T09:39:11.960Z,51.291340
2023-05-06T09:40:12.011Z,51.291370
2023-05-06T09:41:12.074Z,51.291199
2023-05-06T09:42:11.975Z,51.291248
2023-05-06T09:43:11.938Z,51.291225
2023-05-06T09:44:11.908Z,51.291264
2023-05-06T09:45:12.312Z,51.291233
2023-05-06T09:46:11.988Z,51.291260
2023-05-06T09:47:12.257Z,51.291252
2023-05-06T09:48:11.926Z,51.291180
2023-05-06T09:49:11.949Z,51.291313
2023-05-06T09:50:13.578Z,51.291252
2023-05-06T09:51:12.014Z,51.291229
2023-05-06T09:52:11.918Z,51.291210
2023-05-06T09:53:11.848Z,51.291210
2023-05-06T09:54:12.997Z,51.291328
2023-05-06T09:55:11.837Z,51.291405
2023-05-06T09:56:12.834Z,51.291260
2023-05-06T09:57:13.529Z,51.291245
2023-05-06T09:58:15.249Z,51.291302
2023-05-06T09:59:11.712Z,51.291264
2023-05-06T10:00:11.755Z,51.291344
2023-05-06T10:01:15.044Z,51.291111
2023-05-06T10:02:11.835Z,51.291214
2023-05-06T10:03:11.910Z,51.291245
2023-05-06T10:04:11.836Z,51.291416
2023-05-06T10:05:13.070Z,51.291195
2023-05-06T10:06:11.772Z,51.291214
2023-05-06T10:07:12.109Z,51.291138
2023-05-06T10:08:12.614Z,51.290771
2023-05-06T10:09:11.555Z,51.291256
2023-05-06T10:10:11.638Z,51.291134
2023-05-06T10:11:11.622Z,51.291256
2023-05-06T10:12:11.652Z,51.291252
2023-05-06T10:13:11.671Z,51.291084
2023-05-06T10:14:12.717Z,51.291275
2023-05-06T10:15:12.676Z,51.291317
2023-05-06T10:16:12.833Z,51.291615
2023-05-06T10:17:11.478Z,51.291412
2023-05-06T10:18:11.373Z,51.291229
2023-05-06T10:19:11.710Z,51.291317
2023-05-06T10:20:11.365Z,51.291302
2023-05-06T10:21:11.337Z,51.291035
2023-05-06T10:22:11.326Z,51.291050
2023-05-06T10:23:11.617Z,51.291168
2023-05-06T10:49:27.927Z,51.291862
2023-05-06T10:50:27.906Z,51.291862
2023-05-06T10:51:27.942Z,51.291267
2023-05-06T10:52:28.125Z,51.291840
2023-05-06T10:53:27.928Z,51.293236
2023-05-06T10:54:27.855Z,51.293823
2023-05-06T10:55:27.808Z,51.293808
2023-05-06T10:56:28.824Z,51.293808
2023-05-06T10:57:27.772Z,51.291904
2023-05-06T10:58:27.782Z,51.291958
2023-05-06T10:59:27.797Z,51.291954
2023-05-06T11:00:27.845Z,51.291874
2023-05-06T11:01:27.763Z,51.291519
2023-05-06T11:02:27.781Z,51.291515
2023-05-06T11:03:27.866Z,51.291641
2023-05-06T11:04:27.753Z,51.291298
2023-05-06T11:05:27.702Z,51.292000
2023-05-06T11:06:27.739Z,51.291981
2023-05-06T11:07:27.664Z,51.291645
2023-05-06T11:08:27.653Z,51.292046
2023-05-06T11:09:27.713Z,51.291695
2023-05-06T11:10:27.628Z,51.292671
2023-05-06T11:11:27.678Z,51.293171
2023-05-06T11:12:27.615Z,51.293362
2023-05-06T11:13:27.907Z,51.293362
2023-05-06T11:14:27.786Z,51.295071
2023-05-06T11:15:27.606Z,51.291264
2023-05-06T11:16:27.777Z,51.291267
2023-05-06T11:17:27.646Z,51.291264
2023-05-06T11:18:27.661Z,51.291313
2023-05-06T11:19:27.550Z,51.291344
2023-05-06T11:20:27.530Z,51.291206
2023-05-06T11:21:28.371Z,51.291206
2023-05-06T11:22:27.676Z,51.291241
2023-05-06T11:23:27.514Z,51.291317
2023-05-06T11:24:27.498Z,51.291336
2023-05-06T11:25:27.544Z,51.291271
2023-05-06T11:26:27.522Z,51.291180
2023-05-06T11:27:27.507Z,51.291183
2023-05-06T11:28:28.455Z,51.291191
2023-05-06T11:29:27.435Z,51.291294
2023-05-06T11:30:27.447Z,51.291336
2023-05-06T11:31:27.412Z,51.291264
2023-05-06T11:32:27.404Z,51.291306
2023-05-06T11:33:27.373Z,51.291237
2023-05-06T11:34:27.378Z,51.291294
2023-05-06T11:35:27.342Z,51.291340
2023-05-06T11:36:27.314Z,51.291332
2023-05-06T11:37:27.393Z,51.291374
2023-05-06T11:38:27.431Z,51.291271
2023-05-06T11:39:27.318Z,51.291222
2023-05-06T11:40:27.443Z,51.291267
2023-05-06T11:41:27.293Z,51.291275
2023-05-06T11:42:27.327Z,51.291336
2023-05-06T11:43:27.224Z,51.291302
2023-05-06T11:44:27.276Z,51.291256
2023-05-06T11:45:27.313Z,51.291294
2023-05-06T11:46:27.217Z,51.291286
2023-05-06T11:47:27.217Z,51.291241
2023-05-06T11:48:27.225Z,51.291222
2023-05-06T11:49:27.161Z,51.291279
2023-05-06T11:50:27.156Z,51.291306
2023-05-06T11:51:27.528Z,51.291275
2023-05-06T11:52:27.137Z,51.291267
2023-05-06T11:53:27.103Z,51.291294
2023-05-06T11:54:27.134Z,51.291260
2023-05-06T11:55:27.099Z,51.291225
2023-05-06T11:56:27.098Z,51.291294
2023-05-06T11:57:27.055Z,51.291187
2023-05-06T11:58:27.035Z,51.291275
2023-05-06T11:59:27.025Z,51.291313
2023-05-06T12:00:27.050Z,51.291374
2023-05-06T12:01:27.020Z,51.291332
2023-05-06T12:02:27.093Z,51.291264
2023-05-06T12:03:27.171Z,51.291290
2023-05-06T12:04:27.029Z,51.291290
2023-05-06T12:05:27.242Z,51.291363
2023-05-06T12:06:26.961Z,51.291306
2023-05-06T12:07:26.944Z,51.291252
2023-05-06T12:08:30.492Z,51.291206
2023-05-06T12:09:26.905Z,51.291222
2023-05-06T12:10:41.639Z,51.291191
2023-05-06T12:11:26.908Z,51.291267
2023-05-06T12:12:28.320Z,51.291229
2023-05-06T12:13:29.480Z,51.291218
2023-05-06T12:14:27.687Z,51.291336
2023-05-06T12:15:29.348Z,51.291286
2023-05-06T12:16:27.019Z,51.291302
2023-05-06T12:17:26.874Z,51.291245
2023-05-06T12:18:27.614Z,51.291256
2023-05-06T12:19:26.796Z,51.291363
2023-05-06T12:20:26.793Z,51.291256
2023-05-06T12:21:27.877Z,51.291214
2023-05-06T12:22:29.510Z,51.291225
2023-05-06T12:23:29.609Z,51.291298
2023-05-06T12:24:26.734Z,51.291321
2023-05-06T12:25:27.601Z,51.291245
2023-05-06T12:26:26.761Z,51.291256
2023-05-06T12:27:26.747Z,51.291206
2023-05-06T12:28:26.701Z,51.291256
2023-05-06T12:29:26.699Z,51.291294
2023-05-06T12:30:26.671Z,51.291260
2023-05-06T12:31:27.435Z,51.291172
2023-05-06T12:32:27.203Z,51.291195
2023-05-06T12:34:01.928Z,51.291210
2023-05-06T12:34:29.217Z,51.291176
2023-05-06T12:35:27.297Z,51.291107
2023-05-06T12:36:29.435Z,51.291180
2023-05-06T12:37:28.088Z,51.291275
2023-05-06T12:38:26.563Z,51.291187
2023-05-06T12:39:26.644Z,51.291218
2023-05-06T12:40:26.564Z,51.291210
2023-05-06T12:41:26.565Z,51.291153
2023-05-06T12:42:27.308Z,51.291267
2023-05-06T12:43:26.484Z,51.291183
2023-05-06T12:44:28.566Z,51.291153
2023-05-06T12:45:26.604Z,51.291134
2023-05-06T12:46:28.286Z,51.291195
2023-05-06T12:47:27.036Z,51.291321
2023-05-06T12:48:26.612Z,51.291180
2023-05-06T12:49:26.823Z,51.291279
2023-05-06T12:50:27.697Z,51.291035
2023-05-06T12:51:26.401Z,51.291111
2023-05-06T12:52:26.430Z,51.291351
2023-05-06T12:53:26.340Z,51.291256
2023-05-06T12:54:26.591Z,51.291275
2023-05-06T12:55:26.392Z,51.291328
2023-05-06T12:56:26.869Z,51.291416
2023-05-06T12:57:26.377Z,51.291389
2023-05-06T12:58:26.326Z,51.291191
2023-05-06T12:59:26.293Z,51.291153
2023-05-06T13:00:33.695Z,51.291134
2023-05-06T13:01:32.622Z,51.291191
2023-05-06T13:02:28.139Z,51.291206
2023-05-06T13:03:26.310Z,51.291180
2023-05-06T13:04:28.355Z,51.291222
2023-05-06T13:05:26.372Z,51.291225
2023-05-06T13:06:26.209Z,51.291233
2023-05-06T13:07:27.001Z,51.291264
2023-05-06T13:08:26.221Z,51.291191
2023-05-06T13:09:37.253Z,51.291138
2023-05-06T13:10:26.173Z,51.291199
2023-05-06T13:11:26.576Z,51.291180
2023-05-06T13:12:26.145Z,51.291164
2023-05-06T13:13:26.198Z,51.291218
2023-05-06T13:14:26.140Z,51.291168
2023-05-06T13:15:26.098Z,51.291267
2023-05-06T13:16:27.563Z,51.291252
2023-05-06T13:17:26.098Z,51.291267
2023-05-06T13:18:26.086Z,51.291206
2023-05-06T13:20:26.467Z,51.291187
2023-05-06T13:21:26.022Z,51.291199
2023-05-06T13:22:26.076Z,51.291153
2023-05-06T13:23:25.976Z,51.291134
2023-05-06T13:24:26.359Z,51.291245
2023-05-06T13:25:26.303Z,51.291279
2023-05-06T13:26:25.938Z,51.291237
2023-05-06T13:27:25.954Z,51.291214
2023-05-06T13:28:25.882Z,51.291206
2023-05-06T13:29:25.975Z,51.291248
2023-05-06T13:30:25.926Z,51.291264
2023-05-06T13:31:25.908Z,51.291248
2023-05-06T13:32:25.893Z,51.291264
2023-05-06T13:33:26.057Z,51.291286
2023-05-06T13:34:26.032Z,51.291271
2023-05-06T13:35:26.051Z,51.291328
2023-05-06T13:36:25.824Z,51.291306
2023-05-06T13:37:25.836Z,51.291298
2023-05-06T13:38:25.822Z,51.291260
2023-05-06T13:39:25.889Z,51.291328
2023-05-06T13:40:26.035Z,51.291340
2023-05-06T13:41:25.782Z,51.291313
2023-05-06T13:42:25.744Z,51.291328
2023-05-06T13:43:26.752Z,51.291340
2023-05-06T13:44:25.708Z,51.291248
2023-05-06T13:45:25.703Z,51.291283
2023-05-06T13:46:25.799Z,51.291302
2023-05-06T13:47:25.657Z,51.291180
2023-05-06T13:48:25.675Z,51.291214
2023-05-06T13:49:25.655Z,51.291283
2023-05-06T13:50:25.641Z,51.291374
2023-05-06T13:51:25.643Z,51.291348
2023-05-06T13:52:25.626Z,51.291328
2023-05-06T13:53:25.680Z,51.291203
2023-05-06T13:54:25.644Z,51.291191
2023-05-06T13:55:25.637Z,51.291187
2023-05-06T13:56:28.734Z,51.291328
2023-05-06T13:57:25.592Z,51.291294
2023-05-06T13:58:25.934Z,51.291233
2023-05-06T13:59:26.595Z,51.291206
2023-05-06T14:00:25.507Z,51.291222
2023-05-06T14:01:25.569Z,51.291229
2023-05-06T14:02:25.986Z,51.291168
2023-05-06T14:03:25.506Z,51.291206
2023-05-06T14:04:25.572Z,51.291183
2023-05-06T14:05:25.743Z,51.291203
2023-05-06T14:06:26.310Z,51.291180
2023-05-06T14:07:25.505Z,51.291256
2023-05-06T14:08:25.408Z,51.291256
2023-05-06T14:09:26.446Z,51.291260
2023-05-06T14:10:25.399Z,51.291218
2023-05-06T14:11:25.351Z,51.291241
2023-05-06T14:12:25.400Z,51.291111
2023-05-06T14:13:25.359Z,51.291122
2023-05-06T14:14:25.356Z,51.291134
2023-05-06T14:15:26.159Z,51.291092
2023-05-06T14:16:25.383Z,51.291061
2023-05-06T14:17:25.391Z,51.291138
2023-05-06T14:18:26.589Z,51.291172
2023-05-06T14:19:25.704Z,51.291153
2023-05-06T14:20:26.328Z,51.291157
2023-05-06T14:21:25.232Z,51.291153
2023-05-06T14:22:25.308Z,51.291187
2023-05-06T14:23:25.244Z,51.291245
2023-05-06T14:24:25.293Z,51.291164
2023-05-06T14:25:25.184Z,51.291210
2023-05-06T14:26:25.182Z,51.291149
2023-05-06T14:27:25.176Z,51.291245
2023-05-06T14:28:25.175Z,51.291328
2023-05-06T14:29:25.195Z,51.291355
2023-05-06T14:30:25.143Z,51.291344
2023-05-06T14:31:25.172Z,51.291245
2023-05-06T14:32:25.284Z,51.291237
2023-05-06T14:33:25.164Z,51.291294
2023-05-06T14:34:25.127Z,51.291088
2023-05-06T14:35:25.080Z,51.291122
2023-05-06T14:36:26.046Z,51.291348
2023-05-06T14:37:25.089Z,51.291206
2023-05-06T14:38:25.081Z,51.291126
2023-05-06T14:39:25.048Z,51.291145
2023-05-06T14:40:25.017Z,51.291271
2023-05-06T14:41:28.107Z,51.291176
2023-05-06T14:42:25.011Z,51.291222
2023-05-06T14:43:24.957Z,51.291157
2023-05-06T14:44:25.001Z,51.291191
2023-05-06T14:45:25.014Z,51.291130
2023-05-06T14:46:26.496Z,51.291172
2023-05-06T14:47:24.987Z,51.291138
2023-05-06T14:48:24.900Z,51.291122
2023-05-06T14:49:24.906Z,51.291210
2023-05-06T14:50:24.935Z,51.291138
2023-05-06T14:51:24.865Z,51.290936
2023-05-06T14:52:24.846Z,51.291149
2023-05-06T14:53:24.859Z,51.291061
2023-05-06T14:54:24.817Z,51.291019
2023-05-06T14:55:24.883Z,51.290989
2023-05-06T14:56:26.378Z,51.291027
2023-05-06T14:57:24.810Z,51.290833
2023-05-06T14:58:24.787Z,51.290932
2023-05-06T14:59:24.768Z,51.291100
2023-05-06T15:00:24.823Z,51.291130
2023-05-06T15:01:24.794Z,51.291115
2023-05-06T15:02:24.714Z,51.291195
2023-05-06T15:03:24.792Z,51.291164
2023-05-06T15:04:24.740Z,51.291328
2023-05-06T15:05:24.761Z,51.291168
2023-05-06T15:06:24.721Z,51.291054
2023-05-06T15:07:24.699Z,51.291206
2023-05-06T15:08:24.660Z,51.291203
2023-05-06T15:09:24.623Z,51.291206
2023-05-06T15:10:24.665Z,51.291088
2023-05-06T15:11:24.669Z,51.291180
2023-05-06T15:12:24.589Z,51.291271
2023-05-06T15:13:24.689Z,51.291340
2023-05-06T15:14:24.605Z,51.291264
2023-05-06T15:15:24.607Z,51.291279
2023-05-06T15:16:30.960Z,51.291134
2023-05-06T15:18:08.576Z,51.291225
2023-05-06T15:18:37.452Z,51.291153
2023-05-06T15:19:29.284Z,51.291214
2023-05-06T15:20:24.648Z,51.291138
2023-05-06T15:21:28.437Z,51.291103
2023-05-06T15:22:32.656Z,51.291172
2023-05-06T15:23:30.747Z,51.291275
2023-05-06T15:57:49.062Z,51.291237
2023-05-06T15:58:49.134Z,51.291275
2023-05-06T15:59:49.037Z,51.291233
2023-05-06T16:00:49.025Z,51.291252
2023-05-06T16:02:50.181Z,51.291203
2023-05-06T16:03:49.219Z,51.291237
2023-05-06T16:04:49.177Z,51.291252
2023-05-06T16:05:48.978Z,51.291344
2023-05-06T16:06:49.020Z,51.291256
2023-05-06T16:07:48.929Z,51.291252
2023-05-06T16:08:48.993Z,51.291355
2023-05-06T16:09:48.992Z,51.291325
2023-05-06T16:10:48.913Z,51.291344
2023-05-06T16:11:48.891Z,51.291332
2023-05-06T16:12:48.894Z,51.291195
2023-05-06T16:13:48.857Z,51.291176
2023-05-06T16:14:48.877Z,51.291161
2023-05-06T16:15:49.590Z,51.291237
2023-05-06T16:16:48.805Z,51.291237
2023-05-06T16:17:48.808Z,51.291241
2023-05-06T16:18:48.800Z,51.291874
2023-05-06T16:19:48.929Z,51.292236
2023-05-06T16:20:48.809Z,51.292244
2023-05-06T16:21:49.350Z,51.292393
2023-05-06T16:22:48.725Z,51.292679
2023-05-06T16:23:48.718Z,51.292679
2023-05-06T16:24:48.729Z,51.292770
2023-05-06T16:25:49.073Z,51.292789
2023-05-06T16:26:48.685Z,51.292988
2023-05-06T16:27:48.699Z,51.292175
2023-05-06T16:28:48.686Z,51.292141
2023-05-06T16:29:48.677Z,51.291988
2023-05-06T16:30:48.666Z,51.291737
2023-05-06T16:31:48.700Z,51.291298
2023-05-06T16:32:48.669Z,51.291245
2023-05-06T16:33:49.448Z,51.291206
2023-05-06T16:34:48.693Z,51.291428
2023-05-06T16:35:48.613Z,51.290428
2023-05-06T16:36:48.609Z,51.291050
2023-05-06T16:37:48.535Z,51.291195
2023-05-06T16:38:48.693Z,51.291138
2023-05-06T16:39:48.542Z,51.291218
2023-05-06T16:40:48.646Z,51.291241
2023-05-06T16:41:48.578Z,51.291206
2023-05-06T16:42:48.475Z,51.291161
2023-05-06T16:43:48.450Z,51.290993
2023-05-06T16:44:48.522Z,51.291012
2023-05-06T16:45:48.494Z,51.291130
2023-05-06T16:46:49.088Z,51.291153
2023-05-06T16:47:48.652Z,51.291149
2023-05-06T16:48:48.513Z,51.291100
2023-05-06T16:49:48.473Z,51.291241
2023-05-06T16:50:48.412Z,51.291210
2023-05-06T16:51:48.407Z,51.291153
2023-05-06T16:52:48.581Z,51.291134